CheckWX is a tool to help pilots better visualize weather data.  It is not intended as a substitute for an official pre-flight weather briefing.

08:17:03 UTC

EHWO TAF
Woensdrecht Air Base Airport
Bergen Op Zoom, The Netherlands
TAF EHWO 140512Z 1406/1418 10009KT CAVOK TEMPO 1406/1416 15011G21KT SCT016 BKN025 PROB40 TEMPO 1407/1411 4500 -RADZ SCT010 BKN016 BECMG 1415/1418 VRB03KT

Nov-14@
06:00 UTC

Nov-14 @ 06:00 UTC

Nov-14@
15:00 UTC

Nov-14 @ 15:00 UTC

TAF EHWO 140512Z 1406/1418 10009KT CAVOK
Wind
  • 100° at 9 KTS
Conditions
No significant weather
Cloud Levels
  • No significant clouds

Nov-14@
06:00 UTC

Nov-14 @ 06:00 UTC

Nov-14@
16:00 UTC

Nov-14 @ 16:00 UTC

TEMPO 1406/1416 15011G21KT SCT016 BKN025

Temporary

Temporary Changes expected for less than half the time period

Wind
  • 150° at 11 KTS
  • {Gusting to 21 KTS
Cloud Levels
  • Scattered at 1,600' AGL
  • Broken at 2,500' AGL

Nov-14@
07:00 UTC

Nov-14 @ 07:00 UTC

Nov-14@
11:00 UTC

Nov-14 @ 11:00 UTC

PROB40 TEMPO 1407/1411 4500 -RADZ SCT010 BKN016

Temporary - 40% Likelihood

Temporary - 40% Likelihood during this time.

Conditions
Light Rain, Light Drizzle
Cloud Levels
  • Scattered at 1,000' AGL
  • Broken at 1,600' AGL

Nov-14@
15:00 UTC

Nov-14 @ 15:00 UTC

Nov-14@
18:00 UTC

Nov-14 @ 18:00 UTC

BECMG 1415/1418 VRB03KT

Becoming

Becoming Conditions expected by Thu, Nov 14, 2019 @ 18:00 UTC

Wind
  • Variable at 3 KTS
Conditions
No significant weather
Cloud Levels
  • No significant clouds